Time;durP1;ratioP1;P1;durP2;ratioP2;P2;SDS_P1;SDS_P2;PMS_P1;PMS_P2;Temp;Humidity;BMP_temperature;BMP_pressure;BME280_temperature;BME280_humidity;BME280_pressure;Samples;Min_cycle;Max_cycle;Signal;HPM_P1;HPM_P2
2023/08/13 00:01:30;;;;;;;4.13;2.00;;;;;;;24.52;36.89;99101.16;5055258;28;20075;-74
2023/08/13 00:03:56;;;;;;;3.65;2.08;;;;;;;24.48;37.18;99096.41;5055416;28;20040;-73
2023/08/13 00:06:21;;;;;;;4.28;2.30;;;;;;;24.49;37.03;99093.56;5071543;28;20487;-73
2023/08/13 00:08:47;;;;;;;4.40;2.28;;;;;;;24.47;37.30;99092.94;5055003;28;20032;-73
2023/08/13 00:11:12;;;;;;;3.53;2.35;;;;;;;24.42;37.10;99082.03;5038384;28;20127;-73
2023/08/13 00:13:38;;;;;;;4.40;1.98;;;;;;;24.43;37.41;99082.84;5072037;28;20059;-73
2023/08/13 00:16:04;;;;;;;6.97;2.08;;;;;;;24.41;37.38;99084.91;5055004;28;20063;-73
2023/08/13 00:18:31;;;;;;;4.70;2.13;;;;;;;24.42;37.72;99081.22;5055117;28;20059;-73
2023/08/13 00:20:57;;;;;;;7.30;2.30;;;;;;;24.36;37.88;99072.16;5038394;28;20197;-73
2023/08/13 00:23:23;;;;;;;5.28;2.15;;;;;;;24.36;38.08;99075.63;5054834;28;20285;-73
2023/08/13 00:25:48;;;;;;;3.28;2.30;;;;;;;24.41;37.99;99082.25;5058859;28;20512;-74
2023/08/13 00:28:14;;;;;;;4.28;2.20;;;;;;;24.36;37.95;99080.97;5050907;28;20044;-73
2023/08/13 00:30:39;;;;;;;4.03;2.58;;;;;;;24.37;38.40;99079.97;5051637;28;20041;-73
2023/08/13 00:33:05;;;;;;;5.70;2.30;;;;;;;24.38;38.41;99084.28;5017962;28;20195;-73
2023/08/13 00:35:30;;;;;;;4.10;2.20;;;;;;;24.44;38.20;99082.66;5034630;28;20050;-73
2023/08/13 00:37:56;;;;;;;4.55;2.50;;;;;;;24.43;38.53;99089.03;5050793;28;20084;-73
2023/08/13 00:40:21;;;;;;;7.15;2.53;;;;;;;24.44;38.33;99082.66;5051329;28;20033;-73
2023/08/13 00:42:47;;;;;;;4.07;2.17;;;;;;;24.46;38.69;99079.78;5034343;28;20037;-73
2023/08/13 00:45:12;;;;;;;4.00;2.28;;;;;;;24.43;38.61;99077.53;5017439;28;20399;-73
2023/08/13 00:47:38;;;;;;;6.32;2.25;;;;;;;24.44;38.59;99074.66;5051326;28;20120;-73
2023/08/13 00:50:04;;;;;;;3.80;2.20;;;;;;;24.41;38.65;99074.22;5034165;28;20377;-73
2023/08/13 00:52:29;;;;;;;3.95;2.30;;;;;;;24.42;38.94;99081.22;5045209;28;20036;-73
2023/08/13 00:54:55;;;;;;;5.07;2.60;;;;;;;24.45;38.87;99086.13;5054049;28;20060;-73
2023/08/13 00:57:20;;;;;;;3.90;2.20;;;;;;;24.45;38.72;99078.13;5053277;28;20036;-73
2023/08/13 00:59:47;;;;;;;9.05;2.33;;;;;;;24.42;38.99;99074.03;5054161;28;20037;-73
2023/08/13 01:02:12;;;;;;;3.83;2.30;;;;;;;24.48;38.56;99075.91;5037093;28;20407;-73
2023/08/13 01:04:38;;;;;;;6.00;2.55;;;;;;;24.46;38.90;99071.78;5072043;28;20123;-73
2023/08/13 01:07:03;;;;;;;3.72;2.28;;;;;;;24.50;38.56;99073.84;5053882;28;20037;-73
2023/08/13 01:09:35;;;;;;;4.50;2.35;;;;;;;24.50;38.55;99065.03;5071999;28;20086;-73
2023/08/13 01:12:14;;;;;;;5.97;2.40;;;;;;;24.48;38.71;99064.41;5071809;28;20043;-73
2023/08/13 01:15:29;;;;;;;3.10;2.10;;;;;;;24.48;38.66;99067.06;5069817;28;20044;-73
2023/08/13 01:17:54;;;;;;;8.68;2.22;;;;;;;24.43;38.85;99057.03;5049493;28;20473;-74
2023/08/13 01:20:28;;;;;;;3.80;2.20;;;;;;;24.40;38.82;99049.41;5035479;28;20032;-74
2023/08/13 01:22:54;;;;;;;5.15;2.33;;;;;;;24.44;38.74;99055.97;5017752;28;20485;-76
2023/08/13 01:25:19;;;;;;;6.40;2.28;;;;;;;24.42;38.86;99047.34;5017549;28;20036;-73
2023/08/13 01:27:49;;;;;;;3.17;2.45;;;;;;;24.45;38.70;99062.13;5050429;28;20040;-73
2023/08/13 01:30:34;;;;;;;4.50;2.10;;;;;;;24.38;38.71;99059.44;5050934;28;20484;-73
2023/08/13 01:33:03;;;;;;;4.40;2.00;;;;;;;24.37;38.87;99052.47;5034289;28;20119;-73
2023/08/13 01:35:30;;;;;;;5.40;2.35;;;;;;;24.37;38.70;99047.94;5033916;28;20029;-73
2023/08/13 01:37:55;;;;;;;4.10;2.33;;;;;;;24.42;38.87;99059.88;5017162;28;20051;-73
2023/08/13 01:40:21;;;;;;;4.00;2.40;;;;;;;24.37;38.90;99055.13;5049531;28;20408;-73
2023/08/13 01:42:46;;;;;;;3.60;2.20;;;;;;;24.40;38.60;99060.09;5033160;28;20041;-73
2023/08/13 01:45:12;;;;;;;5.38;2.53;;;;;;;24.41;38.60;99058.22;5033669;28;20504;-73
2023/08/13 01:47:37;;;;;;;2.95;2.45;;;;;;;24.43;38.53;99062.34;5034059;28;20037;-73
2023/08/13 01:50:03;;;;;;;6.63;2.30;;;;;;;24.43;38.59;99062.34;5033849;28;20044;-73
2023/08/13 01:52:28;;;;;;;3.83;2.50;;;;;;;24.42;38.59;99068.69;5051706;28;20025;-73
2023/08/13 01:54:54;;;;;;;4.22;2.17;;;;;;;24.36;38.43;99059.63;5051740;28;20033;-73
2023/08/13 01:57:19;;;;;;;6.25;2.70;;;;;;;24.37;38.60;99065.81;5034058;28;20472;-73
2023/08/13 01:59:45;;;;;;;3.53;2.30;;;;;;;24.39;38.62;99066.44;5033897;28;20064;-73
2023/08/13 02:02:10;;;;;;;3.28;2.28;;;;;;;24.38;38.67;99067.44;5052000;28;20049;-72
2023/08/13 02:04:36;;;;;;;4.43;2.22;;;;;;;24.37;38.40;99068.47;5034008;28;20102;-73
2023/08/13 02:07:01;;;;;;;4.25;2.50;;;;;;;24.34;38.48;99061.69;5037319;28;20044;-73
2023/08/13 02:09:27;;;;;;;4.22;2.70;;;;;;;24.33;38.79;99068.03;5037784;28;20037;-73
2023/08/13 02:11:52;;;;;;;6.35;2.17;;;;;;;24.29;38.73;99056.13;5037626;28;20025;-73
2023/08/13 02:14:18;;;;;;;3.13;2.20;;;;;;;24.32;38.63;99060.22;5036726;28;20041;-73
2023/08/13 02:16:43;;;;;;;3.33;2.53;;;;;;;24.31;38.74;99067.41;5037656;28;20044;-73
2023/08/13 02:19:09;;;;;;;6.20;2.40;;;;;;;24.27;38.92;99060.81;5037865;28;20499;-73
2023/08/13 02:21:34;;;;;;;3.83;2.30;;;;;;;24.30;38.54;99064.94;5036815;28;20037;-73
2023/08/13 02:24:00;;;;;;;5.68;2.30;;;;;;;24.30;38.55;99067.63;5054044;28;20037;-73
2023/08/13 02:26:25;;;;;;;3.67;2.35;;;;;;;24.28;38.64;99067.81;5037412;28;20103;-73
2023/08/13 02:28:51;;;;;;;4.82;2.30;;;;;;;24.25;38.68;99060.19;5020729;28;20377;-73
2023/08/13 02:31:16;;;;;;;7.97;2.17;;;;;;;24.30;38.53;99072.94;5037263;28;20045;-73
2023/08/13 02:33:42;;;;;;;4.97;2.40;;;;;;;24.31;38.34;99069.28;5036977;28;20525;-73
2023/08/13 02:36:07;;;;;;;3.13;2.10;;;;;;;24.32;38.18;99078.91;5054805;28;20049;-73
2023/08/13 02:38:33;;;;;;;3.88;2.42;;;;;;;24.30;38.19;99081.75;5037793;28;20527;-73
2023/08/13 02:40:58;;;;;;;4.30;2.38;;;;;;;24.29;38.04;99085.47;5037251;28;20549;-73
2023/08/13 02:43:26;;;;;;;4.75;2.45;;;;;;;24.22;38.15;99078.44;5036562;28;20476;-73
2023/08/13 02:45:51;;;;;;;5.72;2.53;;;;;;;24.23;38.33;99080.91;5036943;28;20126;-73
2023/08/13 02:48:17;;;;;;;5.60;2.40;;;;;;;24.24;38.19;99093.22;5037053;28;20447;-73
2023/08/13 02:50:42;;;;;;;5.28;2.58;;;;;;;24.22;38.35;99084.59;5053753;28;20040;-73
2023/08/13 02:53:08;;;;;;;5.55;2.60;;;;;;;24.20;38.28;99090.13;5020289;28;20045;-73
2023/08/13 02:55:33;;;;;;;4.13;2.30;;;;;;;24.17;38.40;99082.53;5053114;28;20052;-73
2023/08/13 02:57:59;;;;;;;3.03;2.42;;;;;;;24.14;38.41;99082.91;5054625;28;20040;-72
2023/08/13 03:00:24;;;;;;;3.85;2.45;;;;;;;24.16;38.51;99099.56;5053852;28;20045;-72
2023/08/13 03:02:50;;;;;;;4.50;2.70;;;;;;;24.16;38.36;99096.91;5036033;28;20052;-72
2023/08/13 03:05:16;;;;;;;3.78;2.55;;;;;;;24.16;38.26;99090.72;5052703;28;20055;-72
2023/08/13 03:07:42;;;;;;;4.65;2.22;;;;;;;24.14;38.66;99095.44;5053129;28;20120;-72
2023/08/13 03:10:08;;;;;;;4.28;2.38;;;;;;;24.07;38.61;99084.75;5036578;28;20041;-72
2023/08/13 03:12:33;;;;;;;3.78;2.45;;;;;;;24.10;38.66;99095.00;5053956;28;20034;-72
2023/08/13 03:14:59;;;;;;;3.92;2.50;;;;;;;24.09;38.68;99095.22;5052680;28;20041;-73
2023/08/13 03:17:24;;;;;;;3.80;2.35;;;;;;;24.10;38.67;99103.00;5035253;28;20463;-73
2023/08/13 03:19:50;;;;;;;4.80;2.20;;;;;;;24.08;38.78;99096.22;5036122;28;20139;-73
2023/08/13 03:22:15;;;;;;;3.88;2.38;;;;;;;24.07;38.88;99095.41;5052908;28;20044;-72
2023/08/13 03:24:41;;;;;;;6.57;2.70;;;;;;;24.02;38.98;99096.00;5035787;28;20467;-73
2023/08/13 03:27:06;;;;;;;4.32;2.40;;;;;;;24.06;39.14;99098.25;5019818;28;20496;-73
2023/08/13 03:29:31;;;;;;;3.92;2.40;;;;;;;24.06;38.78;99091.06;5036069;28;20059;-72
2023/08/13 03:31:57;;;;;;;4.20;2.58;;;;;;;24.10;38.92;99102.16;5035942;28;20045;-72
2023/08/13 03:34:22;;;;;;;4.45;2.13;;;;;;;24.12;38.99;99100.16;5036049;28;20036;-73
2023/08/13 03:36:48;;;;;;;3.95;2.60;;;;;;;24.08;39.07;99094.38;5035460;28;20044;-73
2023/08/13 03:39:14;;;;;;;5.93;2.45;;;;;;;24.14;38.94;99106.91;5019073;28;20049;-72
2023/08/13 03:41:39;;;;;;;3.30;2.33;;;;;;;24.15;38.81;99111.25;5051725;28;20079;-73
2023/08/13 03:44:05;;;;;;;3.10;2.35;;;;;;;24.22;38.79;99105.94;5036128;28;20037;-73
2023/08/13 03:46:30;;;;;;;3.22;2.38;;;;;;;24.45;38.49;99110.16;5052648;28;20443;-72
2023/08/13 03:48:56;;;;;;;4.03;2.47;;;;;;;25.04;37.50;99108.78;5019728;28;20037;-72
2023/08/13 03:51:21;;;;;;;3.78;2.30;;;;;;;25.58;36.19;99115.84;5035882;28;20095;-73
2023/08/13 03:53:47;;;;;;;3.30;2.22;;;;;;;26.03;35.60;99106.38;5019506;28;20456;-73
2023/08/13 03:56:12;;;;;;;2.60;2.05;;;;;;;26.54;34.85;99110.97;5019127;28;20037;-74
2023/08/13 03:58:38;;;;;;;3.58;2.20;;;;;;;26.98;33.93;99114.72;5035577;28;20048;-72
2023/08/13 04:01:06;;;;;;;3.78;2.30;;;;;;;27.34;33.11;99109.78;5053824;28;20056;-74
2023/08/13 04:03:32;;;;;;;6.75;2.38;;;;;;;27.82;32.52;99111.88;5035547;28;20119;-73
2023/08/13 04:05:57;;;;;;;2.50;2.00;;;;;;;28.29;31.68;99114.09;5019382;28;20040;-72
2023/08/13 04:08:23;;;;;;;3.63;2.30;;;;;;;28.73;30.77;99116.72;5035309;28;20032;-73
2023/08/13 04:10:52;;;;;;;4.28;2.20;;;;;;;29.15;30.12;99114.91;5035219;28;20040;-75
2023/08/13 04:13:17;;;;;;;3.05;2.20;;;;;;;29.61;29.75;99114.44;5034970;28;20045;-73
2023/08/13 04:15:43;;;;;;;5.07;2.47;;;;;;;29.99;28.81;99113.19;5052701;28;20126;-73
2023/08/13 04:18:09;;;;;;;8.68;2.33;;;;;;;30.45;28.62;99116.91;5034971;28;20037;-73
2023/08/13 04:20:39;;;;;;;7.30;2.58;;;;;;;30.81;27.65;99118.41;5050554;28;20051;-73
2023/08/13 04:23:05;;;;;;;4.38;2.08;;;;;;;31.28;27.11;99122.81;5035272;28;20094;-73
2023/08/13 04:25:31;;;;;;;3.55;2.13;;;;;;;31.69;26.75;99122.66;5018568;28;20032;-72
2023/08/13 04:27:57;;;;;;;4.03;2.08;;;;;;;32.05;26.13;99120.50;5034902;28;20095;-72
2023/08/13 04:30:22;;;;;;;4.88;2.22;;;;;;;32.51;25.75;99118.41;5035132;28;20047;-73
2023/08/13 04:32:55;;;;;;;5.95;2.13;;;;;;;32.96;25.29;99119.22;5039193;28;20048;-72
2023/08/13 04:35:23;;;;;;;3.10;1.95;;;;;;;33.52;24.28;99122.44;5043369;28;20130;-72
2023/08/13 04:37:49;;;;;;;6.13;2.22;;;;;;;33.98;23.90;99124.69;5017216;28;20086;-73
2023/08/13 04:40:15;;;;;;;8.23;2.10;;;;;;;34.30;23.35;99121.13;5034433;28;20563;-73
2023/08/13 04:42:42;;;;;;;3.55;1.80;;;;;;;34.50;22.74;99125.78;5052698;28;20068;-73
2023/08/13 04:45:08;;;;;;;5.68;2.10;;;;;;;34.66;22.41;99128.56;5017428;28;20040;-72
2023/08/13 04:47:33;;;;;;;4.50;2.40;;;;;;;35.19;22.19;99123.81;5052528;28;20067;-75
2023/08/13 04:49:59;;;;;;;4.95;2.15;;;;;;;35.69;21.86;99124.09;5034698;28;20095;-73
2023/08/13 04:52:24;;;;;;;2.90;1.80;;;;;;;36.31;21.10;99132.16;5034492;28;20488;-73
2023/08/13 04:54:50;;;;;;;3.70;1.90;;;;;;;36.71;20.42;99136.59;5050898;28;20519;-72
2023/08/13 04:57:15;;;;;;;3.03;1.92;;;;;;;37.18;20.04;99122.72;5017419;28;20041;-73
2023/08/13 04:59:41;;;;;;;4.53;1.95;;;;;;;37.48;19.83;99119.81;5034478;28;20227;-73
2023/08/13 05:02:06;;;;;;;5.47;2.20;;;;;;;37.83;19.45;99120.59;5034335;28;20048;-72
2023/08/13 05:04:32;;;;;;;4.25;1.98;;;;;;;38.20;18.88;99131.94;5017577;28;20184;-73
2023/08/13 05:06:57;;;;;;;4.07;1.83;;;;;;;38.40;18.89;99127.31;5017844;28;20037;-72
2023/08/13 05:09:23;;;;;;;4.72;2.03;;;;;;;38.82;18.63;99125.72;5034560;28;20064;-74
2023/08/13 05:11:48;;;;;;;3.33;1.80;;;;;;;39.11;18.11;99138.41;5051071;28;20112;-73
2023/08/13 05:14:14;;;;;;;5.47;1.90;;;;;;;39.42;17.82;99131.34;5017803;28;20511;-73
2023/08/13 05:16:39;;;;;;;3.67;1.63;;;;;;;39.74;16.96;99124.28;5050799;28;20036;-74
2023/08/13 05:19:04;;;;;;;3.50;1.80;;;;;;;39.98;17.08;99120.59;5051003;28;20044;-73
2023/08/13 05:21:30;;;;;;;2.60;1.80;;;;;;;40.29;17.14;99128.97;5017449;28;20045;-73
2023/08/13 05:23:55;;;;;;;2.95;1.63;;;;;;;40.50;16.65;99139.50;5050777;28;20041;-74
2023/08/13 05:26:21;;;;;;;4.63;1.80;;;;;;;40.75;16.31;99127.19;5017301;28;20503;-73
2023/08/13 05:28:47;;;;;;;4.82;1.80;;;;;;;40.86;15.91;99125.91;5050237;28;20040;-72
2023/08/13 05:31:14;;;;;;;7.55;1.73;;;;;;;41.16;15.84;99139.94;5034212;28;20043;-74
2023/08/13 05:33:39;;;;;;;2.92;1.70;;;;;;;41.24;16.50;99138.41;5034211;28;20107;-74
2023/08/13 05:36:05;;;;;;;3.70;1.50;;;;;;;41.34;15.55;99137.34;5034102;28;20040;-74
2023/08/13 05:38:31;;;;;;;2.33;1.60;;;;;;;41.40;15.94;99130.63;5033779;28;20110;-74
2023/08/13 05:40:56;;;;;;;4.53;1.70;;;;;;;41.52;15.23;99122.66;5036954;28;20045;-73
2023/08/13 05:43:22;;;;;;;2.53;1.70;;;;;;;41.67;15.58;99124.22;5037894;28;20488;-73
2023/08/13 05:45:47;;;;;;;2.97;1.30;;;;;;;41.83;15.63;99121.88;5038371;28;20084;-75
2023/08/13 05:48:13;;;;;;;4.30;1.60;;;;;;;41.96;15.42;99128.38;5021559;28;20037;-74
2023/08/13 05:50:38;;;;;;;3.42;1.50;;;;;;;42.05;15.33;99128.41;5031003;28;20073;-74
2023/08/13 05:53:05;;;;;;;3.50;1.60;;;;;;;42.06;14.81;99124.53;5016360;28;20036;-73
2023/08/13 05:55:30;;;;;;;4.57;1.40;;;;;;;42.05;15.23;99123.75;5047217;28;20491;-73
2023/08/13 05:57:56;;;;;;;5.20;1.60;;;;;;;42.14;14.69;99123.78;5041126;28;20259;-73
2023/08/13 06:00:21;;;;;;;3.87;1.70;;;;;;;42.17;14.60;99125.09;5037135;28;20425;-73
2023/08/13 06:02:47;;;;;;;2.90;1.53;;;;;;;42.17;15.33;99131.38;4996785;28;20181;-72
2023/08/13 06:05:12;;;;;;;3.07;1.50;;;;;;;42.06;15.34;99130.03;4980985;28;20042;-72
2023/08/13 06:07:38;;;;;;;4.13;1.50;;;;;;;42.11;14.87;99127.97;4997290;28;20041;-73
2023/08/13 06:10:04;;;;;;;4.93;1.43;;;;;;;42.08;15.14;99125.03;4965356;28;20128;-72
2023/08/13 06:12:30;;;;;;;7.20;1.53;;;;;;;42.05;14.96;99121.00;4981182;28;20091;-74
2023/08/13 06:14:55;;;;;;;4.53;1.60;;;;;;;42.07;14.33;99115.19;4983375;28;20049;-72
2023/08/13 06:17:21;;;;;;;5.10;1.43;;;;;;;41.90;14.19;99122.22;5016472;28;20037;-74
2023/08/13 06:19:47;;;;;;;3.00;1.23;;;;;;;41.89;14.33;99123.38;4999882;28;20496;-75
2023/08/13 06:22:13;;;;;;;3.03;1.30;;;;;;;41.90;14.67;99119.47;5032031;28;20349;-73
2023/08/13 06:24:39;;;;;;;6.50;1.60;;;;;;;41.99;15.22;99129.66;5016754;28;20510;-75
2023/08/13 06:27:04;;;;;;;3.40;1.30;;;;;;;41.95;14.46;99122.06;4999515;28;20045;-74
2023/08/13 06:29:30;;;;;;;3.43;1.47;;;;;;;41.86;14.20;99118.50;5015851;28;20163;-73
2023/08/13 06:31:55;;;;;;;11.77;1.90;;;;;;;41.96;14.94;99131.13;5000227;28;20037;-72
2023/08/13 06:34:21;;;;;;;19.87;2.10;;;;;;;42.33;15.19;99131.75;5017028;28;20326;-75
2023/08/13 06:36:46;;;;;;;48.23;2.80;;;;;;;42.66;15.26;99137.63;5034222;28;20044;-77
2023/08/13 06:39:12;;;;;;;32.67;2.63;;;;;;;42.93;14.36;99135.72;5000704;28;20076;-74
2023/08/13 06:41:37;;;;;;;10.23;2.07;;;;;;;43.15;14.08;99136.69;5039191;28;20033;-77
2023/08/13 06:44:04;;;;;;;12.97;2.00;;;;;;;43.32;13.81;99138.63;5016816;28;20123;-74
2023/08/13 06:46:29;;;;;;;12.25;2.10;;;;;;;43.02;13.53;99127.50;5032675;28;20394;-73
2023/08/13 06:48:54;;;;;;;5.77;1.60;;;;;;;43.28;12.79;99132.94;5000313;28;20044;-73
2023/08/13 06:51:20;;;;;;;7.20;1.50;;;;;;;43.41;12.69;99144.13;5030907;28;20041;-73
2023/08/13 06:53:45;;;;;;;6.63;1.53;;;;;;;43.42;12.90;99145.75;5016896;28;20547;-75
2023/08/13 06:56:11;;;;;;;11.27;1.80;;;;;;;43.30;13.32;99136.19;5033051;28;20080;-73
2023/08/13 06:58:36;;;;;;;10.20;1.80;;;;;;;43.16;13.96;99133.63;5029033;28;20075;-75
2023/08/13 07:01:03;;;;;;;11.77;2.03;;;;;;;43.06;14.24;99127.66;5019473;28;20049;-78
2023/08/13 07:03:28;;;;;;;6.80;2.03;;;;;;;43.03;14.14;99136.53;5019391;28;20515;-74
2023/08/13 07:05:53;;;;;;;10.77;2.07;;;;;;;43.06;14.14;99133.94;5052954;28;20267;-73
2023/08/13 07:08:21;;;;;;;14.77;1.98;;;;;;;42.99;14.86;99125.41;5052824;28;20787;-73
2023/08/13 07:10:46;;;;;;;8.23;1.33;;;;;;;43.05;12.87;99140.59;5052071;28;20032;-73
2023/08/13 07:13:12;;;;;;;5.47;1.63;;;;;;;43.10;12.44;99134.13;5033741;28;20416;-72
2023/08/13 07:15:37;;;;;;;3.67;1.83;;;;;;;43.22;11.85;99142.50;5069561;28;20075;-74
2023/08/13 07:18:03;;;;;;;5.50;1.33;;;;;;;43.23;11.54;99127.63;5055467;28;20062;-73
2023/08/13 07:20:29;;;;;;;7.53;1.70;;;;;;;43.21;12.02;99129.91;5054703;28;20423;-74
2023/08/13 07:22:58;;;;;;;4.93;1.50;;;;;;;43.26;11.85;99137.19;5034968;28;20040;-75
2023/08/13 07:25:23;;;;;;;12.73;1.67;;;;;;;43.06;13.30;99125.72;5053618;28;20040;-72
2023/08/13 07:27:49;;;;;;;4.20;1.60;;;;;;;43.05;12.99;99135.09;5018847;28;20043;-72
2023/08/13 07:30:14;;;;;;;3.57;1.70;;;;;;;43.08;12.94;99126.22;5053330;28;20037;-73
2023/08/13 07:32:43;;;;;;;25.40;3.23;;;;;;;43.06;14.61;99124.91;5051893;28;20029;-73
2023/08/13 07:35:10;;;;;;;10.25;1.73;;;;;;;43.08;13.66;99131.72;5042844;28;20037;-89
2023/08/13 07:37:35;;;;;;;13.65;2.33;;;;;;;43.11;13.71;99122.00;5056915;28;20044;-75
2023/08/13 07:40:01;;;;;;;10.50;1.47;;;;;;;43.15;13.35;99131.22;5072757;28;20029;-77
2023/08/13 07:42:27;;;;;;;16.20;2.00;;;;;;;43.12;13.81;99126.38;5055958;28;20037;-77
2023/08/13 07:44:53;;;;;;;5.43;1.80;;;;;;;43.03;14.04;99117.31;5051605;28;20544;-78
2023/08/13 07:47:19;;;;;;;4.40;1.60;;;;;;;43.13;13.61;99130.75;5044633;28;20044;-77
2023/08/13 07:49:44;;;;;;;3.55;1.73;;;;;;;43.14;12.88;99127.66;5023198;28;20472;-74
2023/08/13 07:52:10;;;;;;;4.93;1.73;;;;;;;42.64;13.36;99122.63;5048507;28;20036;-72
2023/08/13 07:54:36;;;;;;;4.33;1.50;;;;;;;42.81;13.15;99121.81;5038707;28;20041;-71
2023/08/13 07:57:04;;;;;;;5.78;1.65;;;;;;;42.81;13.02;99108.91;5035494;28;20036;-72
2023/08/13 07:59:29;;;;;;;3.55;1.50;;;;;;;42.84;12.79;99122.00;5017975;28;20041;-72
2023/08/13 08:01:54;;;;;;;4.90;1.60;;;;;;;42.86;13.02;99113.44;5031726;28;20046;-72
2023/08/13 08:04:20;;;;;;;3.67;1.47;;;;;;;42.93;13.03;99111.00;5016681;28;20415;-71
2023/08/13 08:06:45;;;;;;;5.40;1.40;;;;;;;43.01;13.04;99101.97;5008145;28;20036;-71
2023/08/13 08:09:11;;;;;;;4.63;1.67;;;;;;;43.08;13.34;99100.66;5040878;28;20130;-72
2023/08/13 08:11:36;;;;;;;4.63;1.60;;;;;;;43.19;13.32;99112.94;5038061;28;20491;-71
2023/08/13 08:14:02;;;;;;;2.37;1.40;;;;;;;43.30;13.18;99110.66;5055107;28;20166;-72
2023/08/13 08:16:28;;;;;;;4.80;1.60;;;;;;;43.34;13.41;99114.38;5055006;28;20094;-71
2023/08/13 08:18:53;;;;;;;2.77;1.40;;;;;;;43.33;13.23;99110.81;5072699;28;20079;-71
2023/08/13 08:21:19;;;;;;;4.03;1.50;;;;;;;43.28;12.95;99107.44;5055398;28;20040;-71
2023/08/13 08:23:44;;;;;;;2.30;1.30;;;;;;;43.17;12.95;99090.47;5055170;28;20048;-73
2023/08/13 08:26:10;;;;;;;3.27;1.50;;;;;;;43.12;13.31;99098.91;5040931;28;20045;-71
2023/08/13 08:28:35;;;;;;;3.67;1.30;;;;;;;43.13;13.11;99095.84;5032014;28;20044;-71
2023/08/13 08:31:01;;;;;;;2.50;1.37;;;;;;;43.12;13.28;99101.66;5044177;28;20476;-72
2023/08/13 08:33:26;;;;;;;3.57;1.27;;;;;;;43.13;13.22;99095.03;5034000;28;20036;-72
2023/08/13 08:35:52;;;;;;;2.73;1.30;;;;;;;43.10;13.45;99088.25;5034768;28;20052;-71
2023/08/13 08:38:17;;;;;;;2.20;1.30;;;;;;;43.14;13.50;99082.91;5051308;28;20069;-71
2023/08/13 08:40:44;;;;;;;2.67;1.50;;;;;;;43.10;13.52;99095.69;5052434;28;20041;-71
2023/08/13 08:43:10;;;;;;;2.65;1.33;;;;;;;43.06;13.49;99095.50;5034232;28;20120;-72
2023/08/13 08:45:36;;;;;;;4.43;1.60;;;;;;;43.05;13.33;99093.91;5050214;28;20507;-73
2023/08/13 08:48:02;;;;;;;1.80;1.42;;;;;;;42.99;13.56;99085.03;5035936;28;20044;-73
2023/08/13 08:50:28;;;;;;;2.97;1.50;;;;;;;42.91;13.67;99076.78;5054543;28;20028;-72
2023/08/13 08:52:53;;;;;;;4.50;1.60;;;;;;;42.88;13.57;99088.41;5037355;28;20407;-71
2023/08/13 08:55:19;;;;;;;3.17;1.47;;;;;;;42.80;13.49;99098.25;5054226;28;20037;-71
2023/08/13 08:57:44;;;;;;;3.10;1.33;;;;;;;42.68;13.19;99081.63;5072183;28;20069;-71
2023/08/13 09:00:10;;;;;;;6.60;1.50;;;;;;;42.54;13.64;99076.25;5054472;28;20484;-72
2023/08/13 09:02:39;;;;;;;2.97;1.40;;;;;;;42.44;13.82;99080.13;5054063;28;20048;-70
2023/08/13 09:05:06;;;;;;;2.08;1.33;;;;;;;42.36;13.56;99078.19;5055010;28;20068;-72
2023/08/13 09:07:32;;;;;;;2.55;1.40;;;;;;;42.27;13.59;99081.72;5054299;28;20036;-72
2023/08/13 09:09:57;;;;;;;3.70;1.30;;;;;;;42.16;13.75;99083.13;5072099;28;20388;-71
2023/08/13 09:12:23;;;;;;;4.87;1.33;;;;;;;42.05;13.60;99068.09;5050954;28;20495;-72
2023/08/13 09:14:55;;;;;;;3.37;1.40;;;;;;;41.89;13.51;99060.31;5012660;28;20041;-71
2023/08/13 09:17:23;;;;;;;11.90;2.22;;;;;;;41.67;15.07;99066.66;5048467;28;20074;-71
2023/08/13 09:19:49;;;;;;;4.78;1.65;;;;;;;41.49;14.79;99054.78;5052651;28;20124;-72
2023/08/13 09:22:15;;;;;;;7.60;1.95;;;;;;;41.32;14.70;99054.72;5050661;28;20116;-71
2023/08/13 09:24:43;;;;;;;7.60;1.70;;;;;;;41.19;14.95;99053.66;5033434;28;20409;-72
2023/08/13 09:27:09;;;;;;;4.32;1.50;;;;;;;41.04;14.96;99057.59;5033305;28;20841;-70
2023/08/13 09:29:37;;;;;;;7.38;1.90;;;;;;;40.84;15.59;99045.97;5038227;28;20245;-71
2023/08/13 09:32:03;;;;;;;4.20;1.60;;;;;;;40.85;15.60;99055.03;5018710;28;20092;-72
2023/08/13 09:34:29;;;;;;;3.17;1.55;;;;;;;40.80;15.79;99058.69;5022707;28;20091;-71
2023/08/13 09:36:55;;;;;;;2.73;1.50;;;;;;;40.76;15.81;99054.13;5034091;28;20033;-71
2023/08/13 09:39:28;;;;;;;4.53;1.33;;;;;;;40.74;15.41;99043.50;5049996;28;20521;-77
2023/08/13 09:41:54;;;;;;;2.33;1.58;;;;;;;40.59;15.80;99054.78;5049261;28;20069;-74
2023/08/13 09:44:21;;;;;;;8.52;1.83;;;;;;;40.30;16.16;99051.28;5016533;28;20072;-72
2023/08/13 09:46:52;;;;;;;5.28;1.63;;;;;;;40.28;16.26;99053.53;5016550;28;20500;-73
2023/08/13 09:49:17;;;;;;;7.28;1.65;;;;;;;40.11;16.17;99051.44;5048598;28;20049;-72
2023/08/13 09:51:43;;;;;;;3.45;1.52;;;;;;;39.75;16.56;99052.13;5031954;28;20071;-73
2023/08/13 09:54:13;;;;;;;5.25;1.58;;;;;;;39.53;16.76;99041.88;5031666;28;20183;-72
2023/08/13 09:56:40;;;;;;;3.60;1.70;;;;;;;39.32;16.79;99041.41;5048687;28;20041;-73
2023/08/13 09:59:06;;;;;;;2.70;1.48;;;;;;;39.19;16.83;99036.72;5033885;28;20044;-72
2023/08/13 10:01:31;;;;;;;7.90;1.77;;;;;;;39.01;17.09;99035.66;5033510;28;20063;-72
2023/08/13 10:03:57;;;;;;;3.75;1.40;;;;;;;38.97;17.10;99038.16;5033870;28;20044;-73
2023/08/13 10:06:23;;;;;;;4.82;1.58;;;;;;;38.82;17.25;99035.69;5016443;28;20432;-72
2023/08/13 10:08:48;;;;;;;6.72;1.70;;;;;;;38.71;17.34;99035.03;5040776;28;20068;-73
2023/08/13 10:11:14;;;;;;;3.75;1.50;;;;;;;38.67;17.24;99053.09;5019892;28;20042;-74
2023/08/13 10:13:39;;;;;;;3.75;1.63;;;;;;;38.60;17.22;99045.25;5019566;28;20515;-73
2023/08/13 10:16:05;;;;;;;3.10;1.40;;;;;;;38.60;17.07;99031.59;5033438;28;20196;-76
2023/08/13 10:18:31;;;;;;;3.83;1.60;;;;;;;38.55;17.02;99028.97;5044379;28;20041;-74
2023/08/13 10:20:57;;;;;;;8.10;2.30;;;;;;;38.42;19.80;99022.34;5038660;28;20040;-74
2023/08/13 10:23:22;;;;;;;5.43;2.33;;;;;;;38.14;19.89;99026.78;5033486;28;20029;-73
2023/08/13 10:25:52;;;;;;;5.28;1.80;;;;;;;37.98;18.81;99026.97;5027316;28;20491;-75
2023/08/13 10:28:22;;;;;;;8.27;1.80;;;;;;;37.82;18.96;99025.53;5037408;28;20036;-79
2023/08/13 10:30:48;;;;;;;6.05;1.73;;;;;;;37.70;18.89;99023.22;5021484;28;20491;-82
2023/08/13 10:33:13;;;;;;;4.38;1.77;;;;;;;37.58;18.04;99009.16;5064806;28;20107;-76
2023/08/13 10:35:39;;;;;;;4.25;1.50;;;;;;;37.54;18.49;99013.56;5056847;28;20102;-76
2023/08/13 10:38:06;;;;;;;10.95;2.45;;;;;;;37.43;21.51;99023.75;5056881;28;20479;-75
2023/08/13 10:40:32;;;;;;;11.00;2.60;;;;;;;37.15;21.77;99012.56;5056885;28;20048;-74
2023/08/13 10:42:58;;;;;;;11.40;2.00;;;;;;;36.84;21.35;99018.25;5040647;28;20037;-76
2023/08/13 10:45:24;;;;;;;4.07;1.80;;;;;;;36.63;20.85;99011.31;5039132;28;20044;-78
2023/08/13 10:48:03;;;;;;;4.00;1.80;;;;;;;36.42;20.53;99002.47;5057204;28;20037;-81
2023/08/13 10:50:35;;;;;;;3.08;1.58;;;;;;;36.42;20.05;99011.44;5057613;28;20041;-80
2023/08/13 10:53:07;;;;;;;4.28;1.70;;;;;;;36.38;19.82;99004.94;5051183;28;20452;-80
2023/08/13 10:55:47;;;;;;;4.85;1.75;;;;;;;36.34;19.31;99001.16;5035834;28;20496;-79
2023/08/13 10:58:29;;;;;;;4.40;1.60;;;;;;;36.34;19.01;99001.97;5022141;28;20044;-82
2023/08/13 11:00:59;;;;;;;2.75;1.60;;;;;;;36.31;19.25;98993.56;5032961;28;20187;-77
2023/08/13 11:03:30;;;;;;;4.97;1.60;;;;;;;36.20;18.86;98990.88;5032445;28;20034;-79
2023/08/13 11:06:02;;;;;;;5.47;1.60;;;;;;;36.18;18.84;98987.63;5018004;28;20040;-79
2023/08/13 11:08:29;;;;;;;5.05;1.40;;;;;;;36.16;18.96;98989.00;5035984;28;20037;-87
2023/08/13 11:10:55;;;;;;;2.78;1.60;;;;;;;36.16;18.81;98986.28;5019575;28;20037;-79
2023/08/13 11:13:21;;;;;;;4.60;1.60;;;;;;;36.14;18.83;98986.56;5035893;28;20492;-80
2023/08/13 11:15:51;;;;;;;3.90;1.50;;;;;;;36.11;18.99;98997.97;5035898;28;20088;-78
2023/08/13 11:18:17;;;;;;;2.97;1.50;;;;;;;36.04;18.79;99003.72;5053298;28;20187;-78
2023/08/13 11:20:44;;;;;;;4.68;1.60;;;;;;;35.86;18.36;98980.69;5036255;28;20040;-76
2023/08/13 11:23:11;;;;;;;4.18;1.52;;;;;;;35.74;18.38;98984.78;5035667;28;20037;-80
2023/08/13 11:25:37;;;;;;;5.38;1.77;;;;;;;35.61;18.71;98969.91;5036098;28;20412;-78
2023/08/13 11:28:03;;;;;;;3.15;1.55;;;;;;;35.58;18.96;98965.03;5035973;28;20043;-72